createdAt,value
2017-10-29T00:05:39.000Z,20
2017-10-29T00:15:39.000Z,20
2017-10-29T00:25:38.000Z,20
2017-10-29T00:35:38.000Z,19.9
2017-10-29T00:45:38.000Z,19.9
2017-10-29T00:55:38.000Z,19.9
2017-10-29T01:05:38.000Z,19.9
2017-10-29T01:15:38.000Z,19.9
2017-10-29T01:25:38.000Z,20
2017-10-29T01:35:38.000Z,19.9
2017-10-29T01:45:38.000Z,19.7
2017-10-29T01:55:38.000Z,19.5
2017-10-29T02:05:39.000Z,19.5
2017-10-29T02:15:38.000Z,19.3
2017-10-29T02:25:38.000Z,19.1
2017-10-29T02:35:38.000Z,18.9
2017-10-29T02:45:38.000Z,18.9
2017-10-29T02:55:38.000Z,18.9
2017-10-29T03:05:38.000Z,18.6
2017-10-29T03:25:39.000Z,18.8
2017-10-29T03:35:39.000Z,18.7
2017-10-29T03:45:39.000Z,18.6
2017-10-29T03:55:39.000Z,18.5
2017-10-29T04:05:39.000Z,18.5
2017-10-29T04:15:39.000Z,18.5
2017-10-29T04:25:39.000Z,18.4
2017-10-29T04:35:39.000Z,18.4
2017-10-29T04:45:39.000Z,18.4
2017-10-29T04:55:39.000Z,18.5
2017-10-29T05:05:39.000Z,18.4
2017-10-29T05:15:39.000Z,18.5
2017-10-29T05:25:39.000Z,18.9
2017-10-29T05:35:40.000Z,18.8
2017-10-29T05:45:39.000Z,18.4
2017-10-29T05:55:39.000Z,18.3
2017-10-29T06:05:39.000Z,18.2
2017-10-29T06:15:39.000Z,18.2
2017-10-29T06:25:39.000Z,18
2017-10-29T06:35:39.000Z,17.9
2017-10-29T06:45:39.000Z,17.8
2017-10-29T06:55:39.000Z,17.7
2017-10-29T07:05:39.000Z,17.8
2017-10-29T07:15:40.000Z,17.8
2017-10-29T07:25:39.000Z,17.9
2017-10-29T07:35:39.000Z,17.9
2017-10-29T07:45:39.000Z,17.8
2017-10-29T07:55:39.000Z,17.8
2017-10-29T08:05:39.000Z,17.6
2017-10-29T08:15:39.000Z,17.7
2017-10-29T08:25:39.000Z,17.7
2017-10-29T08:35:39.000Z,17.7
2017-10-29T08:45:39.000Z,17.7
2017-10-29T08:55:39.000Z,17.9
2017-10-29T09:05:39.000Z,18
2017-10-29T09:15:39.000Z,18.6
2017-10-29T09:25:39.000Z,18.9
2017-10-29T09:35:39.000Z,19.1
2017-10-29T09:45:39.000Z,19.2
2017-10-29T09:55:39.000Z,19.3
2017-10-29T10:05:39.000Z,19.3
2017-10-29T10:15:39.000Z,19.4
2017-10-29T10:25:40.000Z,19.3
2017-10-29T10:35:40.000Z,19.4
2017-10-29T10:45:40.000Z,19.6
2017-10-29T10:55:40.000Z,20
2017-10-29T11:05:40.000Z,19.9
2017-10-29T11:15:40.000Z,19.8
2017-10-29T11:25:40.000Z,19.6
2017-10-29T11:35:40.000Z,19.7
2017-10-29T11:45:40.000Z,19.7
2017-10-29T11:55:40.000Z,19.7
2017-10-29T12:05:44.000Z,19.7
2017-10-29T12:15:40.000Z,19.7
2017-10-29T12:25:40.000Z,19.7
2017-10-29T12:35:40.000Z,19.6
2017-10-29T12:45:40.000Z,19.7
2017-10-29T12:55:40.000Z,19.8
2017-10-29T13:05:40.000Z,19.8
2017-10-29T13:15:40.000Z,19.9
2017-10-29T13:25:40.000Z,19.8
2017-10-29T13:35:40.000Z,19.8
2017-10-29T13:45:40.000Z,19.8
2017-10-29T13:55:40.000Z,19.8
2017-10-29T14:05:40.000Z,19.8
2017-10-29T14:15:40.000Z,19.8
2017-10-29T14:25:40.000Z,19.8
2017-10-29T14:35:40.000Z,19.8
2017-10-29T14:45:40.000Z,19.8
2017-10-29T14:55:40.000Z,19.8
2017-10-29T15:05:40.000Z,19.8
2017-10-29T15:15:40.000Z,20
2017-10-29T15:25:40.000Z,19.9
2017-10-29T15:35:40.000Z,19.8
2017-10-29T15:45:40.000Z,19.9
2017-10-29T15:55:40.000Z,19.9
2017-10-29T16:05:40.000Z,20
2017-10-29T16:15:42.000Z,20
2017-10-29T16:25:40.000Z,19.9
2017-10-29T16:35:40.000Z,19.9
2017-10-29T16:45:40.000Z,19.9
2017-10-29T16:55:40.000Z,19.9
2017-10-29T17:05:40.000Z,19.9
2017-10-29T17:15:40.000Z,19.9
2017-10-29T17:25:41.000Z,19.9
2017-10-29T17:35:42.000Z,19.9
2017-10-29T17:45:41.000Z,19.9
2017-10-29T17:55:41.000Z,19.9
2017-10-29T18:05:41.000Z,19.8
2017-10-29T18:15:43.000Z,19.8
2017-10-29T18:25:41.000Z,19.8
2017-10-29T18:35:41.000Z,19.7
2017-10-29T18:45:41.000Z,19.8
2017-10-29T18:55:41.000Z,19.8
2017-10-29T19:05:41.000Z,19.8
2017-10-29T19:15:41.000Z,19.8
2017-10-29T19:25:41.000Z,19.7
2017-10-29T19:35:41.000Z,19.9
2017-10-29T19:45:41.000Z,19.8
2017-10-29T19:55:41.000Z,19.8
2017-10-29T20:05:41.000Z,19.8
2017-10-29T20:15:41.000Z,19.8
2017-10-29T20:25:41.000Z,19.8
2017-10-29T20:35:41.000Z,19.8
2017-10-29T20:45:42.000Z,19.7
2017-10-29T20:55:41.000Z,19.9
2017-10-29T21:05:41.000Z,19.9
2017-10-29T21:25:41.000Z,19.9
2017-10-29T21:35:41.000Z,19.8
2017-10-29T21:45:41.000Z,18.8
2017-10-29T21:55:41.000Z,18.3
2017-10-29T22:05:41.000Z,18
2017-10-29T22:15:41.000Z,17.8
2017-10-29T22:25:41.000Z,17.8
2017-10-29T22:35:41.000Z,17.5
2017-10-29T22:45:41.000Z,17.4
2017-10-29T22:55:41.000Z,17.4
2017-10-29T23:05:41.000Z,17.4
2017-10-29T23:15:41.000Z,17.3
2017-10-29T23:25:41.000Z,17.1
2017-10-29T23:35:41.000Z,17.2
2017-10-29T23:45:41.000Z,17.1
2017-10-29T23:55:41.000Z,17
